createdAt,value
2019-04-04T00:00:29.305Z,99756.63
2019-04-04T00:01:00.703Z,99758.36
2019-04-04T00:01:32.121Z,99763.11
2019-04-04T00:02:03.486Z,99760.09
2019-04-04T00:02:34.850Z,99760.52
2019-04-04T00:03:06.164Z,99756.62
2019-04-04T00:03:37.494Z,99758.76
2019-04-04T00:04:08.773Z,99755.63
2019-04-04T00:04:40.223Z,99761.11
2019-04-04T00:05:11.567Z,99759.69
2019-04-04T00:05:42.963Z,99756.94
2019-04-04T00:06:14.302Z,99756.73
2019-04-04T00:06:45.661Z,99760.11
2019-04-04T00:07:16.986Z,99753.99
2019-04-04T00:07:48.375Z,99755.22
2019-04-04T00:08:19.720Z,99758.11
2019-04-04T00:08:51.031Z,99756.77
2019-04-04T00:09:22.446Z,99747.70
2019-04-04T00:09:53.851Z,99755.06
2019-04-04T00:10:27.696Z,99751.67
2019-04-04T00:10:58.344Z,99752.99
2019-04-04T00:11:29.716Z,99752.72
2019-04-04T00:12:01.118Z,99748.45
2019-04-04T00:12:32.445Z,99750.59
2019-04-04T00:13:03.729Z,99746.31
2019-04-04T00:13:35.171Z,99749.80
2019-04-04T00:14:06.572Z,99748.58
2019-04-04T00:14:37.993Z,99741.27
2019-04-04T00:15:09.399Z,99738.34
2019-04-04T00:15:40.784Z,99747.44
2019-04-04T00:16:12.275Z,99741.87
2019-04-04T00:16:46.803Z,99744.46
2019-04-04T00:17:18.415Z,99743.22
2019-04-04T00:17:49.787Z,99742.36
2019-04-04T00:18:21.167Z,99744.58
2019-04-04T00:18:52.675Z,99742.00
2019-04-04T00:19:24.094Z,99742.05
2019-04-04T00:19:55.544Z,99745.95
2019-04-04T00:20:27.109Z,99746.44
2019-04-04T00:21:02.535Z,99746.50
2019-04-04T00:21:33.964Z,99744.81
2019-04-04T00:22:05.944Z,99736.23
2019-04-04T00:22:37.294Z,99746.62
2019-04-04T00:23:08.685Z,99745.68
2019-04-04T00:23:40.011Z,99746.94
2019-04-04T00:24:11.329Z,99744.71
2019-04-04T00:24:44.906Z,99742.55
2019-04-04T00:25:16.284Z,99743.41
2019-04-04T00:25:47.598Z,99744.27
2019-04-04T00:26:19.058Z,99742.11
2019-04-04T00:26:50.381Z,99742.53
2019-04-04T00:27:21.720Z,99745.08
2019-04-04T00:27:53.033Z,99745.08
2019-04-04T00:28:24.377Z,99741.22
2019-04-04T00:28:57.031Z,99742.48
2019-04-04T00:29:32.086Z,99733.71
2019-04-04T00:30:03.513Z,99740.06
2019-04-04T00:30:34.940Z,99740.75
2019-04-04T00:31:06.309Z,99734.94
2019-04-04T00:31:37.583Z,99740.72
2019-04-04T00:32:09.009Z,99739.68
2019-04-04T00:32:40.473Z,99736.16
2019-04-04T00:33:11.898Z,99734.26
2019-04-04T00:33:43.292Z,99739.34
2019-04-04T00:34:14.670Z,99733.23
2019-04-04T00:34:48.086Z,99738.40
2019-04-04T00:35:19.113Z,99732.78
2019-04-04T00:35:50.530Z,99739.24
2019-04-04T00:36:21.866Z,99737.01
2019-04-04T00:36:53.336Z,99733.52
2019-04-04T00:37:24.690Z,99734.78
2019-04-04T00:37:55.986Z,99734.69
2019-04-04T00:38:27.365Z,99730.27
2019-04-04T00:38:58.822Z,99732.77
2019-04-04T00:39:30.201Z,99735.72
2019-04-04T00:40:01.658Z,99734.87
2019-04-04T00:40:32.997Z,99730.20
2019-04-04T00:41:04.382Z,99729.00
2019-04-04T00:41:37.311Z,99731.27
2019-04-04T00:42:08.641Z,99730.06
2019-04-04T00:42:40.006Z,99727.59
2019-04-04T00:43:11.349Z,99729.46
2019-04-04T00:43:42.826Z,99730.94
2019-04-04T00:44:14.158Z,99730.17
2019-04-04T00:44:45.534Z,99730.28
2019-04-04T00:45:16.969Z,99729.99
2019-04-04T00:45:48.309Z,99732.27
2019-04-04T00:46:19.732Z,99724.64
2019-04-04T00:46:51.189Z,99726.95
2019-04-04T00:47:24.200Z,99725.80
2019-04-04T00:47:55.505Z,99726.73
2019-04-04T00:48:26.761Z,99723.39
2019-04-04T00:49:00.568Z,99726.05
2019-04-04T00:49:31.884Z,99729.59
2019-04-04T00:50:06.682Z,99733.12
2019-04-04T00:50:38.145Z,99724.52
2019-04-04T00:51:09.420Z,99730.24
2019-04-04T00:51:40.909Z,99729.83
2019-04-04T00:52:12.264Z,99722.03
2019-04-04T00:52:43.494Z,99729.38
2019-04-04T00:53:17.953Z,99726.30
2019-04-04T00:53:49.221Z,99721.98
2019-04-04T00:54:23.584Z,99725.34
2019-04-04T00:54:54.893Z,99727.02
2019-04-04T00:55:26.135Z,99727.02
2019-04-04T00:55:57.391Z,99726.19
2019-04-04T00:56:28.664Z,99722.77
2019-04-04T00:56:59.976Z,99727.12
2019-04-04T00:58:21.507Z,99728.95
2019-04-04T00:58:52.834Z,99722.55
2019-04-04T00:59:24.094Z,99729.03
2019-04-04T00:59:55.389Z,99727.71
2019-04-04T01:00:26.678Z,99723.81
2019-04-04T01:00:57.893Z,99732.44
2019-04-04T01:01:29.097Z,99728.13
2019-04-04T01:02:00.390Z,99723.34
2019-04-04T01:02:32.176Z,99729.31
2019-04-04T01:03:03.654Z,99720.99
2019-04-04T01:03:34.930Z,99725.20
2019-04-04T01:04:06.282Z,99719.48
2019-04-04T01:04:37.569Z,99727.61
2019-04-04T01:05:08.868Z,99717.23
2019-04-04T01:05:40.087Z,99720.71
2019-04-04T01:06:11.372Z,99722.00
2019-04-04T01:06:42.620Z,99717.73
2019-04-04T01:07:13.933Z,99717.80
2019-04-04T01:07:45.225Z,99717.45
2019-04-04T01:08:16.553Z,99719.63
2019-04-04T01:08:47.849Z,99720.56
2019-04-04T01:09:22.080Z,99721.52
2019-04-04T01:09:53.416Z,99723.72
2019-04-04T01:10:24.669Z,99724.64
2019-04-04T01:10:55.953Z,99727.28
2019-04-04T01:11:27.217Z,99724.70
2019-04-04T01:12:02.336Z,99722.55
2019-04-04T01:12:36.187Z,99724.73
2019-04-04T01:13:07.393Z,99723.01
2019-04-04T01:13:38.705Z,99722.55
2019-04-04T01:14:09.998Z,99722.14
2019-04-04T01:14:41.307Z,99726.42
2019-04-04T01:15:12.624Z,99725.11
2019-04-04T01:15:43.888Z,99719.89
2019-04-04T01:16:15.126Z,99724.19
2019-04-04T01:16:46.373Z,99720.70
2019-04-04T01:17:18.686Z,99722.42
2019-04-04T01:17:49.976Z,99719.37
2019-04-04T01:18:22.459Z,99723.22
2019-04-04T01:18:53.816Z,99717.61
2019-04-04T01:19:27.343Z,99724.52
2019-04-04T01:19:58.605Z,99725.00
2019-04-04T01:20:29.888Z,99720.26
2019-04-04T01:21:01.245Z,99717.28
2019-04-04T01:21:32.613Z,99721.61
2019-04-04T01:22:03.878Z,99722.05
2019-04-04T01:22:35.281Z,99719.08
2019-04-04T01:23:06.550Z,99719.56
2019-04-04T01:23:37.979Z,99721.34
2019-04-04T01:24:09.213Z,99716.62
2019-04-04T01:24:40.468Z,99721.40
2019-04-04T01:25:11.798Z,99722.30
2019-04-04T01:25:43.029Z,99722.34
2019-04-04T01:26:14.348Z,99719.28
2019-04-04T01:26:45.679Z,99718.85
2019-04-04T01:27:16.941Z,99719.70
2019-04-04T01:27:48.208Z,99722.30
2019-04-04T01:28:20.572Z,99720.59
2019-04-04T01:28:51.932Z,99715.01
2019-04-04T01:29:23.222Z,99716.30
2019-04-04T01:29:54.507Z,99719.77
2019-04-04T01:30:25.754Z,99712.45
2019-04-04T01:30:57.142Z,99718.95
2019-04-04T01:31:28.403Z,99720.70
2019-04-04T01:31:59.992Z,99722.45
2019-04-04T01:32:31.265Z,99721.63
2019-04-04T01:33:03.861Z,99720.77
2019-04-04T01:33:37.702Z,99716.02
2019-04-04T01:34:09.042Z,99720.38
2019-04-04T01:34:40.294Z,99719.92
2019-04-04T01:35:11.556Z,99715.62
2019-04-04T01:35:42.800Z,99718.61
2019-04-04T01:36:14.066Z,99717.79
2019-04-04T01:36:45.431Z,99719.06
2019-04-04T01:37:16.827Z,99719.97
2019-04-04T01:37:48.040Z,99714.34
2019-04-04T01:38:19.268Z,99715.20
2019-04-04T01:38:51.660Z,99717.40
2019-04-04T01:39:24.270Z,99716.97
2019-04-04T01:39:55.546Z,99713.06
2019-04-04T01:40:28.179Z,99713.97
2019-04-04T01:40:59.453Z,99721.30
2019-04-04T01:41:30.740Z,99713.13
2019-04-04T01:42:02.023Z,99715.75
2019-04-04T01:42:33.369Z,99711.46
2019-04-04T01:43:04.699Z,99710.17
2019-04-04T01:43:38.081Z,99705.45
2019-04-04T01:44:11.358Z,99705.48
2019-04-04T01:44:42.243Z,99708.91
2019-04-04T01:45:17.028Z,99705.03
2019-04-04T01:45:50.226Z,99706.31
2019-04-04T01:46:21.470Z,99705.47
2019-04-04T01:46:52.774Z,99708.50
2019-04-04T01:47:24.039Z,99709.80
2019-04-04T01:47:55.310Z,99706.78
2019-04-04T01:48:26.639Z,99707.61
2019-04-04T01:48:57.962Z,99708.05
2019-04-04T01:49:29.221Z,99711.95
2019-04-04T01:50:00.459Z,99711.09
2019-04-04T01:50:31.752Z,99708.02
2019-04-04T01:51:03.133Z,99707.17
2019-04-04T01:51:34.376Z,99704.98
2019-04-04T01:52:05.640Z,99706.70
2019-04-04T01:52:37.818Z,99708.84
2019-04-04T01:53:09.157Z,99708.38
2019-04-04T01:53:42.140Z,99705.76
2019-04-04T01:54:13.342Z,99702.30
2019-04-04T01:54:44.644Z,99706.19
2019-04-04T01:55:15.906Z,99708.78
2019-04-04T01:55:47.911Z,99704.48
2019-04-04T01:56:19.720Z,99707.05
2019-04-04T01:56:50.949Z,99708.73
2019-04-04T01:57:22.174Z,99701.38
2019-04-04T01:57:53.530Z,99704.39
2019-04-04T01:58:24.812Z,99700.91
2019-04-04T01:58:56.247Z,99697.44
2019-04-04T01:59:32.365Z,99703.44
2019-04-04T02:00:03.301Z,99703.89
2019-04-04T02:00:34.554Z,99702.62
2019-04-04T02:01:07.183Z,99697.45
2019-04-04T02:01:38.411Z,99701.80
2019-04-04T02:02:09.743Z,99698.72
2019-04-04T02:02:41.012Z,99696.11
2019-04-04T02:03:12.252Z,99696.94
2019-04-04T02:03:43.528Z,99697.82
2019-04-04T02:04:14.893Z,99694.73
2019-04-04T02:04:46.223Z,99694.73
2019-04-04T02:05:17.507Z,99692.98
2019-04-04T02:05:48.711Z,99691.70
2019-04-04T02:06:19.937Z,99694.69
2019-04-04T02:06:51.206Z,99692.12
2019-04-04T02:07:22.654Z,99691.27
2019-04-04T02:07:53.938Z,99696.03
2019-04-04T02:08:25.400Z,99691.76
2019-04-04T02:08:56.667Z,99699.96
2019-04-04T02:09:27.931Z,99701.69
2019-04-04T02:09:59.239Z,99693.52
2019-04-04T02:10:30.588Z,99697.38
2019-04-04T02:11:01.849Z,99697.84
2019-04-04T02:11:33.100Z,99694.41
2019-04-04T02:12:07.611Z,99691.00
2019-04-04T02:12:39.198Z,99690.14
2019-04-04T02:13:10.523Z,99699.22
2019-04-04T02:13:41.814Z,99696.67
2019-04-04T02:14:13.054Z,99688.89
2019-04-04T02:14:44.420Z,99686.30
2019-04-04T02:15:18.809Z,99686.31
2019-04-04T02:15:49.997Z,99690.19
2019-04-04T02:16:21.199Z,99684.61
2019-04-04T02:16:55.488Z,99690.66
2019-04-04T02:17:29.434Z,99688.97
2019-04-04T02:18:00.715Z,99685.09
2019-04-04T02:18:32.631Z,99687.29
2019-04-04T02:19:03.909Z,99685.57
2019-04-04T02:19:35.268Z,99687.31
2019-04-04T02:20:06.497Z,99682.18
2019-04-04T02:20:40.534Z,99681.77
2019-04-04T02:21:11.849Z,99682.63
2019-04-04T02:21:43.067Z,99686.09
2019-04-04T02:22:14.412Z,99683.97
2019-04-04T02:22:45.728Z,99682.67
2019-04-04T02:23:16.973Z,99684.83
2019-04-04T02:23:49.003Z,99683.14
2019-04-04T02:24:21.997Z,99682.27
2019-04-04T02:24:53.292Z,99683.14
2019-04-04T02:25:24.935Z,99688.75
2019-04-04T02:25:56.292Z,99687.48
2019-04-04T02:26:30.471Z,99685.77
2019-04-04T02:27:01.684Z,99685.77
2019-04-04T02:27:32.915Z,99688.78
2019-04-04T02:28:04.204Z,99689.23
2019-04-04T02:28:35.534Z,99686.66
2019-04-04T02:29:06.828Z,99693.12
2019-04-04T02:29:41.829Z,99694.88
2019-04-04T02:30:16.111Z,99686.25
2019-04-04T02:30:48.475Z,99693.12
2019-04-04T02:31:25.464Z,99687.48
2019-04-04T02:31:56.820Z,99688.71
2019-04-04T02:32:28.139Z,99691.27
2019-04-04T02:33:00.393Z,99692.55
2019-04-04T02:33:32.408Z,99688.67
2019-04-04T02:34:06.198Z,99686.92
2019-04-04T02:34:38.433Z,99688.25
2019-04-04T02:35:10.648Z,99686.05
2019-04-04T02:35:43.905Z,99685.62
2019-04-04T02:36:16.667Z,99686.91
2019-04-04T02:36:49.317Z,99688.20
2019-04-04T02:37:23.863Z,99686.06
2019-04-04T02:37:56.060Z,99684.34
2019-04-04T02:38:28.271Z,99684.38
2019-04-04T02:39:02.075Z,99682.20
2019-04-04T02:39:35.075Z,99681.80
2019-04-04T02:40:10.692Z,99683.06
2019-04-04T02:40:42.191Z,99684.38
2019-04-04T02:41:15.584Z,99681.81
2019-04-04T02:41:48.457Z,99681.83
2019-04-04T02:42:22.259Z,99682.71
2019-04-04T02:42:55.281Z,99684.00
2019-04-04T02:43:28.405Z,99684.85
2019-04-04T02:43:59.726Z,99677.55
2019-04-04T02:44:32.264Z,99678.85
2019-04-04T02:45:05.650Z,99676.28
2019-04-04T02:45:38.705Z,99682.75
2019-04-04T02:46:11.469Z,99677.58
2019-04-04T02:46:45.522Z,99679.73
2019-04-04T02:47:18.255Z,99679.75
2019-04-04T02:47:51.202Z,99682.78
2019-04-04T02:48:25.063Z,99681.48
2019-04-04T02:48:57.063Z,99680.20
2019-04-04T02:49:29.572Z,99680.61
2019-04-04T02:50:02.081Z,99685.80
2019-04-04T02:50:35.672Z,99678.02
2019-04-04T02:51:07.923Z,99673.23
2019-04-04T02:51:41.084Z,99676.19
2019-04-04T02:52:13.277Z,99674.46
2019-04-04T02:52:46.192Z,99676.13
2019-04-04T02:53:20.301Z,99675.65
2019-04-04T02:53:52.941Z,99676.47
2019-04-04T02:54:25.512Z,99679.48
2019-04-04T02:54:58.292Z,99675.17
2019-04-04T02:56:35.018Z,99674.75
2019-04-04T02:57:08.234Z,99678.23
2019-04-04T02:57:41.149Z,99674.36
2019-04-04T02:58:13.989Z,99676.53
2019-04-04T02:58:43.774Z,99671.38
2019-04-04T02:59:20.244Z,99673.47
2019-04-04T02:59:52.834Z,99673.41
2019-04-04T03:00:26.286Z,99677.71
2019-04-04T03:00:59.123Z,99671.67
2019-04-04T03:01:31.644Z,99670.38
2019-04-04T03:02:05.838Z,99673.81
2019-04-04T03:02:37.104Z,99669.07
2019-04-04T03:03:09.418Z,99676.03
2019-04-04T03:03:43.779Z,99676.03
2019-04-04T03:04:15.082Z,99673.87
2019-04-04T03:04:47.195Z,99667.41
2019-04-04T03:05:20.112Z,99664.81
2019-04-04T03:05:52.303Z,99673.02
2019-04-04T03:06:25.173Z,99673.92
2019-04-04T03:06:58.530Z,99670.47
2019-04-04T03:07:30.845Z,99672.16
2019-04-04T03:08:04.158Z,99672.61
2019-04-04T03:08:37.686Z,99672.63
2019-04-04T03:09:09.963Z,99675.23
2019-04-04T03:09:43.257Z,99676.98
2019-04-04T03:10:16.523Z,99675.26
2019-04-04T03:10:49.049Z,99670.98
2019-04-04T03:11:22.001Z,99674.03
2019-04-04T03:11:54.655Z,99677.46
2019-04-04T03:12:26.937Z,99674.88
2019-04-04T03:12:59.407Z,99675.31
2019-04-04T03:13:32.148Z,99677.89
2019-04-04T03:14:04.552Z,99677.50
2019-04-04T03:14:37.338Z,99682.66
2019-04-04T03:15:10.055Z,99676.64
2019-04-04T03:15:47.418Z,99679.27
2019-04-04T03:16:20.960Z,99684.00
2019-04-04T03:16:50.310Z,99683.16
2019-04-04T03:17:21.647Z,99681.45
2019-04-04T03:17:52.889Z,99683.64
2019-04-04T03:18:24.180Z,99684.11
2019-04-04T03:18:55.470Z,99684.57
2019-04-04T03:19:26.705Z,99683.27
2019-04-04T03:19:58.031Z,99685.48
2019-04-04T03:20:29.240Z,99688.05
2019-04-04T03:21:00.571Z,99685.48
2019-04-04T03:21:31.800Z,99679.03
2019-04-04T03:22:05.090Z,99685.49
2019-04-04T03:22:36.630Z,99685.50
2019-04-04T03:23:07.982Z,99682.50
2019-04-04T03:23:39.322Z,99688.13
2019-04-04T03:24:10.621Z,99685.55
2019-04-04T03:24:44.857Z,99683.41
2019-04-04T03:25:15.717Z,99680.41
2019-04-04T03:25:48.050Z,99682.14
2019-04-04T03:26:20.567Z,99681.31
2019-04-04T03:26:52.780Z,99682.20
2019-04-04T03:27:26.901Z,99681.33
2019-04-04T03:28:00.616Z,99683.51
2019-04-04T03:28:32.477Z,99681.77
2019-04-04T03:29:05.477Z,99686.11
2019-04-04T03:29:37.736Z,99686.10
2019-04-04T03:30:14.450Z,99685.26
2019-04-04T03:30:42.517Z,99686.98
2019-04-04T03:31:13.761Z,99683.53
2019-04-04T03:31:45.116Z,99681.83
2019-04-04T03:32:17.510Z,99686.59
2019-04-04T03:32:53.883Z,99681.41
2019-04-04T03:33:29.440Z,99678.83
2019-04-04T03:33:54.862Z,99680.98
2019-04-04T03:34:26.134Z,99681.44
2019-04-04T03:34:59.585Z,99680.55
2019-04-04T03:35:30.483Z,99676.67
2019-04-04T03:36:04.300Z,99678.39
2019-04-04T03:36:35.513Z,99684.42
2019-04-04T03:37:12.309Z,99682.73
2019-04-04T03:37:46.030Z,99680.56
2019-04-04T03:38:15.762Z,99683.59
2019-04-04T03:38:47.441Z,99680.13
2019-04-04T03:39:19.598Z,99682.72
2019-04-04T03:39:53.277Z,99685.72
2019-04-04T03:40:25.774Z,99684.03
2019-04-04T03:40:57.877Z,99685.75
2019-04-04T03:41:35.884Z,99682.75
2019-04-04T03:42:08.142Z,99684.88
2019-04-04T03:42:38.446Z,99677.15
2019-04-04T03:43:09.698Z,99683.63
2019-04-04T03:43:41.041Z,99681.91
2019-04-04T03:44:12.313Z,99679.75
2019-04-04T03:44:44.544Z,99682.78
2019-04-04T03:45:15.841Z,99683.63
2019-04-04T03:45:48.565Z,99683.63
2019-04-04T03:46:19.863Z,99685.78
2019-04-04T03:46:51.172Z,99685.34
2019-04-04T03:47:22.401Z,99684.06
2019-04-04T03:47:53.632Z,99690.95
2019-04-04T03:48:24.898Z,99690.09
2019-04-04T03:48:56.156Z,99684.94
2019-04-04T03:49:27.494Z,99683.20
2019-04-04T03:49:58.785Z,99687.08
2019-04-04T03:50:30.718Z,99686.63
2019-04-04T03:51:04.821Z,99684.92
2019-04-04T03:51:37.950Z,99685.37
2019-04-04T03:52:11.247Z,99689.23
2019-04-04T03:52:44.335Z,99690.51
2019-04-04T03:53:16.655Z,99693.09
2019-04-04T03:53:49.469Z,99692.68
2019-04-04T03:54:22.635Z,99689.66
2019-04-04T03:54:55.620Z,99685.77
2019-04-04T03:55:27.855Z,99684.50
2019-04-04T03:56:01.187Z,99690.51
2019-04-04T03:56:38.739Z,99691.38
2019-04-04T03:57:04.722Z,99694.39
2019-04-04T03:57:35.956Z,99690.94
2019-04-04T03:58:07.168Z,99693.11
2019-04-04T03:58:38.754Z,99692.23
2019-04-04T03:59:09.966Z,99699.11
2019-04-04T03:59:41.207Z,99691.81
2019-04-04T04:00:12.449Z,99690.50
2019-04-04T04:00:46.851Z,99696.53
2019-04-04T04:01:18.164Z,99694.38
2019-04-04T04:01:49.433Z,99692.23
2019-04-04T04:02:20.666Z,99693.96
2019-04-04T04:02:53.079Z,99695.67
2019-04-04T04:03:24.409Z,99698.25
2019-04-04T04:03:55.898Z,99701.70
2019-04-04T04:04:28.426Z,99693.52
2019-04-04T04:05:01.009Z,99693.95
2019-04-04T04:05:35.541Z,99699.11
2019-04-04T04:06:08.690Z,99701.27
2019-04-04T04:06:41.256Z,99695.67
2019-04-04T04:07:14.208Z,99701.27
2019-04-04T04:07:45.878Z,99702.55
2019-04-04T04:08:20.964Z,99699.97
2019-04-04T04:08:53.526Z,99697.39
2019-04-04T04:09:26.019Z,99705.13
2019-04-04T04:09:59.284Z,99699.95
2019-04-04T04:10:33.977Z,99703.40
2019-04-04T04:11:06.164Z,99699.52
2019-04-04T04:11:38.300Z,99701.69
2019-04-04T04:12:11.208Z,99701.24
2019-04-04T04:12:43.832Z,99705.56
2019-04-04T04:13:17.581Z,99704.27
2019-04-04T04:13:49.860Z,99707.70
2019-04-04T04:14:21.986Z,99707.27
2019-04-04T04:14:55.072Z,99703.81
2019-04-04T04:15:29.223Z,99704.25
2019-04-04T04:16:02.659Z,99704.67
2019-04-04T04:16:34.958Z,99705.97
2019-04-04T04:17:13.134Z,99705.11
2019-04-04T04:17:45.687Z,99709.39
2019-04-04T04:18:20.238Z,99713.27
2019-04-04T04:18:54.406Z,99713.29
2019-04-04T04:19:24.559Z,99713.29
2019-04-04T04:19:56.500Z,99713.70
2019-04-04T04:20:27.785Z,99709.84
2019-04-04T04:20:59.051Z,99713.26
2019-04-04T04:21:30.690Z,99712.84
2019-04-04T04:22:05.025Z,99713.25
2019-04-04T04:22:36.310Z,99716.28
2019-04-04T04:23:07.567Z,99714.09
2019-04-04T04:23:38.845Z,99717.11
2019-04-04T04:24:10.112Z,99714.94
2019-04-04T04:24:41.314Z,99716.63
2019-04-04T04:25:12.525Z,99719.20
2019-04-04T04:25:43.758Z,99714.44
2019-04-04T04:26:15.122Z,99711.44
2019-04-04T04:26:46.403Z,99716.16
2019-04-04T04:27:17.649Z,99716.57
2019-04-04T04:27:48.945Z,99716.98
2019-04-04T04:28:21.058Z,99716.12
2019-04-04T04:28:53.503Z,99717.84
2019-04-04T04:29:26.980Z,99723.88
2019-04-04T04:30:00.131Z,99717.86
2019-04-04T04:30:30.837Z,99717.86
2019-04-04T04:31:02.032Z,99720.00
2019-04-04T04:31:33.285Z,99718.72
2019-04-04T04:32:04.526Z,99720.87
2019-04-04T04:32:37.419Z,99720.44
2019-04-04T04:33:08.845Z,99717.42
2019-04-04T04:33:40.178Z,99717.42
2019-04-04T04:34:11.452Z,99719.14
2019-04-04T04:34:42.746Z,99714.41
2019-04-04T04:35:13.976Z,99722.59
2019-04-04T04:35:45.217Z,99725.16
2019-04-04T04:36:16.707Z,99718.27
2019-04-04T04:36:49.827Z,99723.44
2019-04-04T04:37:21.230Z,99719.12
2019-04-04T04:37:53.773Z,99720.41
2019-04-04T04:38:26.743Z,99722.58
2019-04-04T04:38:59.976Z,99717.83
2019-04-04T04:39:36.097Z,99701.48
2019-04-04T04:40:04.512Z,99724.69
2019-04-04T04:40:38.649Z,99724.70
2019-04-04T04:41:09.931Z,99722.52
2019-04-04T04:41:43.237Z,99725.48
2019-04-04T04:42:14.477Z,99724.60
2019-04-04T04:42:45.732Z,99721.54
2019-04-04T04:43:17.022Z,99728.34
2019-04-04T04:43:48.324Z,99723.12
2019-04-04T04:44:19.581Z,99723.00
2019-04-04T04:44:50.807Z,99725.89
2019-04-04T04:45:22.071Z,99723.22
2019-04-04T04:45:53.445Z,99724.84
2019-04-04T04:46:24.662Z,99720.86
2019-04-04T04:46:55.892Z,99727.24
2019-04-04T04:47:30.156Z,99724.98
2019-04-04T04:48:01.427Z,99723.59
2019-04-04T04:48:32.671Z,99721.39
2019-04-04T04:49:04.314Z,99727.05
2019-04-04T04:49:36.394Z,99721.84
2019-04-04T04:50:09.626Z,99723.98
2019-04-04T04:50:41.137Z,99723.98
2019-04-04T04:51:12.799Z,99729.16
2019-04-04T04:51:44.297Z,99727.85
2019-04-04T04:52:15.586Z,99728.70
2019-04-04T04:52:47.675Z,99724.81
2019-04-04T04:53:19.656Z,99728.23
2019-04-04T04:53:51.309Z,99728.63
2019-04-04T04:54:23.436Z,99729.46
2019-04-04T04:54:55.556Z,99725.20
2019-04-04T04:55:28.073Z,99725.26
2019-04-04T04:56:00.539Z,99732.59
2019-04-04T04:56:32.116Z,99731.70
2019-04-04T04:57:04.748Z,99729.06
2019-04-04T04:57:38.327Z,99730.33
2019-04-04T04:58:12.232Z,99734.24
2019-04-04T04:58:43.494Z,99734.76
2019-04-04T04:59:14.814Z,99730.55
2019-04-04T04:59:46.160Z,99729.70
2019-04-04T05:00:17.375Z,99725.54
2019-04-04T05:00:48.620Z,99730.79
2019-04-04T05:01:19.901Z,99732.14
2019-04-04T05:01:51.359Z,99729.17
2019-04-04T05:02:23.003Z,99728.35
2019-04-04T05:02:54.216Z,99734.00
2019-04-04T05:03:25.450Z,99733.19
2019-04-04T05:03:57.254Z,99736.20
2019-04-04T05:04:29.152Z,99736.17
2019-04-04T05:05:02.216Z,99738.32
2019-04-04T05:05:33.422Z,99732.64
2019-04-04T05:06:04.656Z,99738.20
2019-04-04T05:06:36.378Z,99733.44
2019-04-04T05:07:08.151Z,99737.69
2019-04-04T05:07:39.467Z,99731.55
2019-04-04T05:08:10.824Z,99739.20
2019-04-04T05:08:42.078Z,99737.77
2019-04-04T05:09:14.055Z,99733.35
2019-04-04T05:09:45.859Z,99736.67
2019-04-04T05:10:17.189Z,99735.22
2019-04-04T05:10:51.226Z,99735.91
2019-04-04T05:11:25.343Z,99736.19
2019-04-04T05:11:56.761Z,99736.91
2019-04-04T05:12:28.025Z,99731.60
2019-04-04T05:12:59.263Z,99733.70
2019-04-04T05:13:30.525Z,99732.71
2019-04-04T05:14:01.763Z,99734.74
2019-04-04T05:14:33.019Z,99736.73
2019-04-04T05:15:06.051Z,99736.11
2019-04-04T05:15:37.273Z,99735.56
2019-04-04T05:16:09.026Z,99731.05
2019-04-04T05:16:40.294Z,99726.59
2019-04-04T05:17:11.496Z,99733.06
2019-04-04T05:17:42.745Z,99726.01
2019-04-04T05:18:14.162Z,99729.80
2019-04-04T05:18:48.129Z,99736.55
2019-04-04T05:19:19.720Z,99734.16
2019-04-04T05:19:50.959Z,99722.20
2019-04-04T05:20:23.138Z,99734.21
2019-04-04T05:20:57.416Z,99730.66
2019-04-04T05:21:28.919Z,99733.22
2019-04-04T05:22:00.271Z,99732.18
2019-04-04T05:22:31.491Z,99728.78
2019-04-04T05:23:02.716Z,99731.69
2019-04-04T05:23:33.943Z,99729.35
2019-04-04T05:24:05.201Z,99731.00
2019-04-04T05:24:36.409Z,99728.40
2019-04-04T05:25:08.919Z,99730.08
2019-04-04T05:25:51.686Z,99734.06
2019-04-04T05:26:13.358Z,99730.05
2019-04-04T05:26:44.605Z,99734.41
2019-04-04T05:27:15.916Z,99729.92
2019-04-04T05:27:47.131Z,99734.63
2019-04-04T05:28:18.376Z,99737.16
2019-04-04T05:28:49.714Z,99733.55
2019-04-04T05:29:23.963Z,99736.91
2019-04-04T05:29:55.191Z,99736.91
2019-04-04T05:30:26.460Z,99732.33
2019-04-04T05:30:57.671Z,99727.28
2019-04-04T05:31:28.970Z,99733.91
2019-04-04T05:32:00.253Z,99730.89
2019-04-04T05:32:31.596Z,99732.98
2019-04-04T05:33:02.798Z,99731.19
2019-04-04T05:33:34.025Z,99736.23
2019-04-04T05:34:05.262Z,99735.57
2019-04-04T05:34:36.598Z,99736.37
2019-04-04T05:35:07.801Z,99736.11
2019-04-04T05:35:41.042Z,99732.48
2019-04-04T05:36:11.975Z,99732.11
2019-04-04T05:36:43.328Z,99733.80
2019-04-04T05:37:14.700Z,99733.63
2019-04-04T05:37:45.931Z,99730.95
2019-04-04T05:38:17.187Z,99734.85
2019-04-04T05:38:48.419Z,99726.41
2019-04-04T05:39:19.660Z,99725.27
2019-04-04T05:39:55.214Z,99725.27
2019-04-04T05:40:30.662Z,99729.16
2019-04-04T05:41:01.527Z,99728.78
2019-04-04T05:41:32.742Z,99726.44
2019-04-04T05:42:04.344Z,99731.19
2019-04-04T05:42:35.596Z,99728.63
2019-04-04T05:43:07.031Z,99726.11
2019-04-04T05:43:38.294Z,99726.37
2019-04-04T05:44:10.357Z,99738.38
2019-04-04T05:44:42.335Z,99730.03
2019-04-04T05:45:14.456Z,99729.44
2019-04-04T05:45:46.407Z,99731.16
2019-04-04T05:46:18.970Z,99731.09
2019-04-04T05:46:52.094Z,99734.19
2019-04-04T05:47:23.879Z,99732.77
2019-04-04T05:47:59.836Z,99730.95
2019-04-04T05:48:31.143Z,99733.14
2019-04-04T05:49:07.866Z,99735.19
2019-04-04T05:49:38.148Z,99731.33
2019-04-04T05:50:11.333Z,99736.16
2019-04-04T05:50:44.313Z,99731.06
2019-04-04T05:51:15.990Z,99736.73
2019-04-04T05:51:48.457Z,99726.91
2019-04-04T05:52:20.269Z,99731.23
2019-04-04T05:52:53.264Z,99730.89
2019-04-04T05:53:24.507Z,99732.23
2019-04-04T05:53:55.863Z,99731.84
2019-04-04T05:54:27.171Z,99730.58
2019-04-04T05:54:58.445Z,99733.14
2019-04-04T05:55:59.937Z,99729.58
2019-04-04T05:56:31.808Z,99729.92
2019-04-04T05:57:03.577Z,99731.57
2019-04-04T05:57:36.201Z,99731.88
2019-04-04T05:58:07.480Z,99725.59
2019-04-04T05:58:38.742Z,99726.22
2019-04-04T05:59:10.061Z,99727.34
2019-04-04T05:59:42.457Z,99727.44
2019-04-04T06:00:13.767Z,99725.66
2019-04-04T06:00:45.070Z,99725.03
2019-04-04T06:01:16.423Z,99726.20
2019-04-04T06:01:47.693Z,99726.91
2019-04-04T06:02:18.966Z,99725.94
2019-04-04T06:02:52.034Z,99723.25
2019-04-04T06:03:23.294Z,99728.37
2019-04-04T06:03:54.548Z,99723.85
2019-04-04T06:04:25.855Z,99720.78
2019-04-04T06:04:57.083Z,99723.34
2019-04-04T06:05:28.433Z,99724.63
2019-04-04T06:06:01.349Z,99729.66
2019-04-04T06:06:33.403Z,99724.36
2019-04-04T06:07:05.441Z,99727.38
2019-04-04T06:07:37.245Z,99724.16
2019-04-04T06:08:10.570Z,99724.16
2019-04-04T06:08:43.338Z,99719.73
2019-04-04T06:09:14.887Z,99725.65
2019-04-04T06:09:47.035Z,99720.28
2019-04-04T06:10:21.251Z,99721.48
2019-04-04T06:10:52.521Z,99718.31
2019-04-04T06:11:23.893Z,99720.73
2019-04-04T06:11:55.151Z,99722.81
2019-04-04T06:12:26.337Z,99718.48
2019-04-04T06:12:57.589Z,99719.59
2019-04-04T06:13:30.577Z,99724.08
2019-04-04T06:14:01.894Z,99719.53
2019-04-04T06:14:33.179Z,99720.22
2019-04-04T06:15:04.499Z,99720.67
2019-04-04T06:15:35.883Z,99721.52
2019-04-04T06:16:07.198Z,99718.06
2019-04-04T06:16:38.407Z,99717.75
2019-04-04T06:17:09.654Z,99720.06
2019-04-04T06:17:40.889Z,99715.78
2019-04-04T06:18:12.158Z,99724.22